Time;durP1;ratioP1;P1;durP2;ratioP2;P2;SDS_P1;SDS_P2;PMS_P1;PMS_P2;Temp;Humidity;BMP_temperature;BMP_pressure;BME280_temperature;BME280_humidity;BME280_pressure;Samples;Min_cycle;Max_cycle;Signal;HPM_P1;HPM_P2
2022/10/05 03:27:44;;;;;;;11.68;8.32;;;;;;;11.13;73.67;97142.63;5208421;23;19922;-80
2022/10/05 03:30:16;;;;;;;8.88;7.60;;;;;;;11.12;73.68;97145.41;4980020;28;20423;-81
2022/10/05 03:32:53;;;;;;;8.83;7.83;;;;;;;11.10;73.48;97152.59;4980662;28;20042;-81
2022/10/05 03:35:28;;;;;;;8.25;7.30;;;;;;;11.09;73.60;97149.16;4980689;28;20103;-81
2022/10/05 03:38:08;;;;;;;8.43;7.35;;;;;;;11.07;73.20;97145.09;4962072;28;20114;-80
2022/10/05 03:40:42;;;;;;;8.68;7.78;;;;;;;11.06;73.80;97148.69;4961553;29;20134;-81
2022/10/05 03:43:28;;;;;;;8.48;7.20;;;;;;;11.05;73.45;97140.03;4965792;29;20524;-81
2022/10/05 03:46:09;;;;;;;9.60;7.25;;;;;;;11.04;73.21;97134.97;4967517;28;20058;-81
2022/10/05 03:48:52;;;;;;;9.25;7.35;;;;;;;11.00;72.89;97136.31;4968456;28;20058;-81
2022/10/05 03:51:24;;;;;;;10.73;6.60;;;;;;;10.95;73.15;97131.59;4964015;28;20059;-81
2022/10/05 03:53:57;;;;;;;12.68;7.80;;;;;;;10.93;73.02;97128.34;4960781;29;20125;-81
2022/10/05 03:56:32;;;;;;;8.98;7.97;;;;;;;10.87;72.79;97121.22;4961161;28;20047;-80
2022/10/05 03:59:09;;;;;;;9.68;7.45;;;;;;;10.83;72.81;97125.16;4961741;29;20066;-81
2022/10/05 04:01:43;;;;;;;9.45;7.22;;;;;;;10.80;73.08;97120.25;4960874;29;20134;-80
2022/10/05 04:04:16;;;;;;;8.98;6.43;;;;;;;10.78;73.03;97123.06;4959846;29;20065;-80
2022/10/05 04:06:55;;;;;;;8.52;6.93;;;;;;;10.72;72.96;97127.16;4960598;29;20051;-80
2022/10/05 04:09:32;;;;;;;8.63;6.07;;;;;;;10.65;72.53;97121.00;4963559;29;20065;-81
2022/10/05 04:12:12;;;;;;;8.73;6.60;;;;;;;10.62;73.25;97121.31;4959848;29;20474;-80
2022/10/05 04:15:00;;;;;;;8.27;5.32;;;;;;;10.62;72.61;97116.09;4958533;29;20063;-81
2022/10/05 04:17:37;;;;;;;6.00;5.10;;;;;;;10.61;72.61;97117.09;4959654;28;20043;-80
2022/10/05 04:59:15;;;;;;;8.60;5.30;;;;;;;10.14;73.27;97104.00;1906844;23;20326;-83
2022/10/05 05:02:02;;;;;;;8.27;5.88;;;;;;;10.15;73.11;97097.81;4999213;28;20043;-81
2022/10/05 05:04:43;;;;;;;6.03;5.13;;;;;;;10.14;72.67;97099.59;5001350;28;20058;-81
2022/10/05 05:07:33;;;;;;;6.85;5.18;;;;;;;10.11;72.77;97115.56;4988097;28;20090;-81
2022/10/05 05:10:26;;;;;;;6.63;5.50;;;;;;;10.11;73.00;97115.56;4981863;28;20053;-81
2022/10/05 05:13:07;;;;;;;6.68;5.05;;;;;;;10.11;72.49;97121.59;4981679;28;20095;-81
2022/10/05 05:23:44;;;;;;;8.50;6.07;;;;;;;10.20;73.44;97138.03;5933290;23;20037;-82
2022/10/05 05:28:55;;;;;;;8.75;6.05;;;;;;;10.23;73.41;97145.53;5686139;23;20079;-81
2022/10/05 05:31:33;;;;;;;9.25;6.07;;;;;;;10.21;72.63;97144.88;5000921;28;20046;-81
2022/10/05 05:34:13;;;;;;;12.20;5.85;;;;;;;10.21;73.26;97152.72;5000875;28;20086;-81
2022/10/05 05:36:56;;;;;;;7.07;6.05;;;;;;;10.22;73.22;97156.94;4992288;28;20031;-81
2022/10/05 05:39:28;;;;;;;7.10;5.72;;;;;;;10.23;72.74;97157.72;4981349;29;20031;-81
2022/10/05 05:44:49;;;;;;;7.78;6.13;;;;;;;10.19;73.36;97167.69;5518189;23;20057;-81
2022/10/05 05:52:42;;;;;;;6.50;4.82;;;;;;;10.33;73.63;97175.84;4999103;28;20035;-82
2022/10/05 05:55:20;;;;;;;6.00;5.40;;;;;;;10.30;73.97;97177.00;5000661;28;20030;-81
2022/10/05 05:58:00;;;;;;;8.73;5.38;;;;;;;10.30;73.06;97179.63;4982371;28;20051;-81
2022/10/05 06:00:38;;;;;;;6.50;4.93;;;;;;;10.31;73.32;97179.44;4981206;29;20087;-81
2022/10/05 06:03:13;;;;;;;5.75;4.97;;;;;;;10.33;72.70;97191.50;4981285;28;20038;-81
2022/10/05 06:05:46;;;;;;;7.63;4.60;;;;;;;10.34;72.41;97186.09;4981068;28;20095;-81
2022/10/05 06:08:21;;;;;;;6.75;5.25;;;;;;;10.36;73.11;97184.13;4980995;29;20036;-81
2022/10/05 06:10:57;;;;;;;7.63;5.07;;;;;;;10.39;72.29;97185.63;4981145;29;20063;-80
2022/10/05 06:13:31;;;;;;;6.65;5.00;;;;;;;10.43;73.10;97187.75;4981202;28;20027;-81
2022/10/05 06:16:14;;;;;;;7.28;4.95;;;;;;;10.50;72.57;97187.88;4984936;28;20066;-81
2022/10/05 06:18:46;;;;;;;7.25;4.57;;;;;;;10.54;71.67;97194.41;4984825;29;20033;-81
2022/10/05 06:21:24;;;;;;;5.80;5.05;;;;;;;10.63;72.60;97189.97;4984861;29;20039;-81
2022/10/05 06:23:59;;;;;;;5.38;4.40;;;;;;;10.72;70.95;97192.38;4984702;29;20059;-81
2022/10/05 06:26:42;;;;;;;7.72;5.00;;;;;;;10.78;70.61;97200.50;4984737;28;20035;-81
2022/10/05 06:29:16;;;;;;;5.75;4.20;;;;;;;10.81;70.25;97195.78;4984407;29;20043;-81
2022/10/05 06:31:57;;;;;;;13.20;5.40;;;;;;;10.87;70.02;97196.91;4984686;29;20086;-81
2022/10/05 06:34:42;;;;;;;6.10;3.88;;;;;;;10.96;69.66;97195.91;4984677;28;20095;-81
2022/10/05 06:37:20;;;;;;;6.10;4.43;;;;;;;11.07;70.15;97200.72;4984747;28;20030;-81
2022/10/05 06:40:19;;;;;;;5.72;4.88;;;;;;;11.16;69.03;97208.53;4984529;29;20060;-81
2022/10/05 06:43:06;;;;;;;8.90;5.13;;;;;;;11.23;68.83;97201.66;4970561;28;20031;-81
2022/10/05 06:45:53;;;;;;;8.82;5.03;;;;;;;11.35;68.59;97218.56;4984592;28;20045;-81
2022/10/05 06:48:39;;;;;;;7.65;4.45;;;;;;;11.47;70.55;97217.19;5142842;23;20062;-82
2022/10/05 06:51:22;;;;;;;8.68;5.10;;;;;;;11.59;68.78;97219.41;5003800;28;20054;-81
2022/10/05 06:54:03;;;;;;;4.50;4.07;;;;;;;11.74;72.49;97218.50;5003695;28;20027;-82
2022/10/05 06:56:41;;;;;;;8.98;4.47;;;;;;;11.90;71.40;97225.44;4996718;28;20038;-81
2022/10/05 06:59:21;;;;;;;5.65;4.43;;;;;;;12.01;67.63;97229.44;4984380;29;20027;-81
2022/10/05 07:02:05;;;;;;;6.00;4.05;;;;;;;12.16;69.99;97229.50;4968066;29;20039;-82
2022/10/05 07:04:55;;;;;;;6.93;4.32;;;;;;;12.31;66.54;97240.81;4984341;29;20031;-81
2022/10/05 07:07:39;;;;;;;4.45;3.55;;;;;;;12.44;66.36;97234.97;4968122;29;20031;-81
2022/10/05 07:10:25;;;;;;;3.83;3.20;;;;;;;12.60;66.16;97231.38;4984227;29;20034;-81
2022/10/05 07:13:17;;;;;;;8.32;3.35;;;;;;;12.79;65.32;97222.22;4984222;29;20042;-81
2022/10/05 07:16:01;;;;;;;4.45;3.67;;;;;;;13.03;67.08;97218.50;4983285;28;20035;-81
2022/10/05 07:18:49;;;;;;;7.22;3.20;;;;;;;13.24;65.02;97227.41;4984042;29;20028;-81
2022/10/05 07:21:38;;;;;;;3.70;3.15;;;;;;;13.44;64.36;97231.09;4984023;29;20034;-81
2022/10/05 07:24:29;;;;;;;3.97;3.53;;;;;;;13.66;63.30;97231.94;4984079;29;20027;-82
2022/10/05 07:27:09;;;;;;;4.35;3.63;;;;;;;13.94;65.08;97231.22;4983785;28;20031;-81
2022/10/05 09:18:38;;;;;;;6.07;3.92;;;;;;;20.67;50.61;97239.47;5178551;23;20041;-80
